Time;durP1;ratioP1;P1;durP2;ratioP2;P2;SDS_P1;SDS_P2;PMS_P1;PMS_P2;Temp;Humidity;BMP_temperature;BMP_pressure;BME280_temperature;BME280_humidity;BME280_pressure;Samples;Min_cycle;Max_cycle;Signal;HPM_P1;HPM_P2
2022/04/18 00:00:41;;;;;;;;;;;9.00;99.90;;;;;;5135697;27;19912;-77
2022/04/18 00:03:07;;;;;;;;;;;8.90;99.90;;;;;;5135121;27;19919;-77
2022/04/18 00:05:33;;;;;;;;;;;9.00;99.90;;;;;;5135552;27;19907;-77
2022/04/18 00:07:59;;;;;;;;;;;8.90;99.90;;;;;;5135074;27;20367;-77
2022/04/18 00:10:24;;;;;;;;;;;8.80;99.90;;;;;;5135207;27;19908;-77
2022/04/18 00:12:50;;;;;;;;;;;8.80;99.90;;;;;;5135334;27;19931;-77
2022/04/18 00:15:15;;;;;;;;;;;8.80;99.90;;;;;;5135403;27;19907;-77
2022/04/18 00:17:41;;;;;;;;;;;8.70;99.90;;;;;;5135212;27;20002;-76
2022/04/18 00:20:07;;;;;;;;;;;8.70;99.90;;;;;;5134617;27;19915;-77
2022/04/18 00:22:33;;;;;;;;;;;8.70;99.90;;;;;;5135580;27;19915;-76
2022/04/18 00:24:59;;;;;;;;;;;8.60;99.90;;;;;;5135380;27;19908;-76
2022/04/18 00:27:24;;;;;;;;;;;8.60;99.90;;;;;;5135451;27;19907;-76
2022/04/18 00:29:50;;;;;;;;;;;8.60;99.90;;;;;;5135853;27;19950;-76
2022/04/18 00:32:16;;;;;;;;;;;8.50;99.90;;;;;;5135333;27;20492;-76
2022/04/18 00:34:42;;;;;;;;;;;8.50;99.90;;;;;;5135677;27;19914;-76
2022/04/18 00:37:07;;;;;;;;;;;8.50;99.90;;;;;;5134871;27;19911;-76
2022/04/18 00:39:33;;;;;;;;;;;8.50;99.90;;;;;;5135581;27;19918;-76
2022/04/18 00:41:59;;;;;;;;;;;8.40;99.90;;;;;;5135043;27;19911;-76
2022/04/18 00:44:24;;;;;;;;;;;8.40;99.90;;;;;;5135346;27;20275;-76
2022/04/18 00:46:50;;;;;;;;;;;8.40;99.90;;;;;;5116953;27;19908;-76
2022/04/18 00:49:15;;;;;;;;;;;8.40;99.90;;;;;;5116431;27;19908;-76
2022/04/18 00:51:41;;;;;;;;;;;8.40;99.90;;;;;;5135744;27;19998;-76
2022/04/18 00:54:08;;;;;;;;;;;8.40;99.90;;;;;;5134640;27;19919;-74
2022/04/18 00:56:34;;;;;;;;;;;8.40;99.90;;;;;;5135327;27;19985;-75
2022/04/18 00:59:00;;;;;;;;;;;8.40;99.90;;;;;;5134044;27;19916;-73
2022/04/18 01:01:26;;;;;;;;;;;8.30;99.90;;;;;;5134517;27;19914;-71
2022/04/18 01:03:51;;;;;;;;;;;8.20;99.90;;;;;;5135150;27;19914;-71
2022/04/18 01:06:18;;;;;;;;;;;8.20;99.90;;;;;;5115861;27;20547;-74
2022/04/18 01:08:44;;;;;;;;;;;8.10;99.90;;;;;;5134834;27;19915;-78
2022/04/18 01:11:09;;;;;;;;;;;8.10;99.90;;;;;;5134100;27;19946;-74
2022/04/18 01:13:39;;;;;;;;;;;8.10;99.90;;;;;;5116736;27;20418;-74
2022/04/18 01:16:05;;;;;;;;;;;8.00;99.90;;;;;;5134561;27;19998;-76
2022/04/18 01:18:30;;;;;;;;;;;8.00;99.90;;;;;;5135021;27;19998;-77
2022/04/18 01:20:56;;;;;;;;;;;8.00;99.90;;;;;;5134914;27;20283;-78
2022/04/18 01:23:21;;;;;;;;;;;7.90;99.90;;;;;;5134124;27;19907;-75
2022/04/18 01:31:15;;;;;;;;;;;7.80;99.90;;;;;;5134410;27;20378;-76
2022/04/18 01:33:41;;;;;;;;;;;7.80;99.90;;;;;;5134932;27;19907;-76
2022/04/18 01:36:07;;;;;;;;;;;7.80;99.90;;;;;;5134100;27;19971;-75
2022/04/18 01:38:33;;;;;;;;;;;7.80;99.90;;;;;;5134278;27;19918;-76
2022/04/18 01:40:59;;;;;;;;;;;7.70;99.90;;;;;;5134411;27;19912;-75
2022/04/18 01:43:24;;;;;;;;;;;7.70;99.90;;;;;;5115751;27;20348;-76
2022/04/18 01:45:50;;;;;;;;;;;7.60;99.90;;;;;;5134407;27;19907;-76
2022/04/18 01:48:15;;;;;;;;;;;7.60;99.90;;;;;;5133748;27;20261;-76
2022/04/18 01:50:41;;;;;;;;;;;7.60;99.90;;;;;;5134313;27;20356;-75
2022/04/18 01:53:06;;;;;;;;;;;7.60;99.90;;;;;;5115271;27;19911;-75
2022/04/18 01:55:32;;;;;;;;;;;7.60;99.90;;;;;;5133862;27;19927;-75
2022/04/18 01:57:58;;;;;;;;;;;7.60;99.90;;;;;;5133873;27;20411;-75
2022/04/18 02:00:23;;;;;;;;;;;7.60;99.90;;;;;;5133344;27;20395;-76
2022/04/18 02:02:49;;;;;;;;;;;7.60;99.90;;;;;;5133849;27;20044;-76
2022/04/18 02:05:15;;;;;;;;;;;7.60;99.90;;;;;;5132799;27;19907;-76
2022/04/18 02:07:40;;;;;;;;;;;7.50;99.90;;;;;;5134139;27;19955;-76
2022/04/18 02:10:06;;;;;;;;;;;7.50;99.90;;;;;;5133184;27;19908;-76
2022/04/18 02:12:32;;;;;;;;;;;7.60;99.90;;;;;;5133296;27;19946;-76
2022/04/18 02:14:58;;;;;;;;;;;7.50;99.90;;;;;;5133883;27;20284;-76
2022/04/18 02:17:23;;;;;;;;;;;7.50;99.90;;;;;;5133488;27;19918;-76
2022/04/18 02:19:49;;;;;;;;;;;7.50;99.90;;;;;;5134056;27;19977;-76
2022/04/18 02:22:15;;;;;;;;;;;7.50;99.90;;;;;;5133205;27;19911;-74
2022/04/18 02:24:40;;;;;;;;;;;7.50;99.90;;;;;;5133637;27;19908;-75
2022/04/18 02:27:09;;;;;;;;;;;7.50;99.90;;;;;;5133345;27;19907;-76
2022/04/18 02:29:35;;;;;;;;;;;7.40;99.90;;;;;;5133719;27;19911;-76
2022/04/18 02:34:45;;;;;;;;;;;7.40;99.90;;;;;;5133956;28;20010;-76
2022/04/18 02:37:11;;;;;;;;;;;7.40;99.90;;;;;;5132905;28;20010;-75
2022/04/18 02:39:37;;;;;;;;;;;7.30;99.90;;;;;;5133624;28;19915;-76
2022/04/18 02:42:02;;;;;;;;;;;7.30;99.90;;;;;;5134158;28;19908;-75
2022/04/18 02:44:28;;;;;;;;;;;7.30;99.90;;;;;;5133079;28;19914;-76
2022/04/18 02:46:54;;;;;;;;;;;7.30;99.90;;;;;;5134095;28;20371;-75
2022/04/18 02:49:19;;;;;;;;;;;7.30;99.90;;;;;;5133154;28;19908;-76
2022/04/18 02:51:45;;;;;;;;;;;7.40;99.90;;;;;;5115360;28;19907;-76
2022/04/18 02:54:10;;;;;;;;;;;7.40;99.90;;;;;;5132987;28;19957;-75
2022/04/18 02:56:36;;;;;;;;;;;7.40;99.90;;;;;;5133183;28;19919;-76
2022/04/18 02:59:01;;;;;;;;;;;7.40;99.90;;;;;;5134230;28;19926;-76
2022/04/18 03:01:27;;;;;;;;;;;7.30;99.90;;;;;;5132655;28;19915;-76
2022/04/18 03:03:53;;;;;;;;;;;7.30;99.90;;;;;;5114776;28;19961;-76
2022/04/18 03:06:18;;;;;;;;;;;7.40;99.90;;;;;;5132695;28;19907;-76
2022/04/18 03:08:44;;;;;;;;;;;7.40;99.90;;;;;;5133615;28;19914;-75
2022/04/18 03:11:10;;;;;;;;;;;7.40;99.90;;;;;;5132761;28;19939;-76
2022/04/18 03:13:36;;;;;;;;;;;7.40;99.90;;;;;;5133611;28;19911;-76
2022/04/18 03:16:02;;;;;;;;;;;7.50;99.90;;;;;;5133452;28;19930;-75
2022/04/18 03:18:28;;;;;;;;;;;7.50;99.90;;;;;;5132874;28;19912;-76
2022/04/18 03:20:54;;;;;;;;;;;7.50;99.90;;;;;;5133411;28;19964;-74
2022/04/18 03:23:19;;;;;;;;;;;7.50;99.90;;;;;;5134508;27;20379;-73
2022/04/18 03:25:45;;;;;;;;;;;7.60;99.90;;;;;;5118860;27;20428;-73
2022/04/18 03:28:10;;;;;;;;;;;7.50;99.90;;;;;;5136318;27;19908;-73
2022/04/18 03:30:36;;;;;;;;;;;7.50;99.90;;;;;;5136920;27;19912;-75
2022/04/18 03:33:02;;;;;;;;;;;7.50;99.90;;;;;;5136780;27;19935;-75
2022/04/18 03:35:28;;;;;;;;;;;7.50;99.90;;;;;;5136572;27;19907;-75
2022/04/18 03:40:37;;;;;;;;;;;7.50;99.90;;;;;;5136734;27;19967;-75
2022/04/18 03:43:03;;;;;;;;;;;7.40;99.90;;;;;;5136992;27;19911;-75
2022/04/18 03:45:29;;;;;;;;;;;7.50;99.90;;;;;;5136043;27;19911;-76
2022/04/18 03:47:54;;;;;;;;;;;7.50;99.90;;;;;;5136803;27;19933;-75
2022/04/18 03:50:20;;;;;;;;;;;7.50;99.90;;;;;;5135418;27;19914;-75
2022/04/18 03:52:45;;;;;;;;;;;7.40;99.90;;;;;;5136600;27;19939;-75
2022/04/18 03:55:11;;;;;;;;;;;7.40;99.90;;;;;;5135812;27;19919;-75
2022/04/18 03:57:37;;;;;;;;;;;7.40;99.90;;;;;;5136355;27;20364;-75
2022/04/18 04:00:04;;;;;;;;;;;7.40;99.90;;;;;;5136259;27;20336;-76
2022/04/18 04:02:30;;;;;;;;;;;7.40;99.90;;;;;;5135484;27;20057;-76
2022/04/18 04:04:55;;;;;;;;;;;7.40;99.90;;;;;;5136553;27;20352;-76
2022/04/18 04:07:21;;;;;;;;;;;7.40;99.90;;;;;;5135793;27;19914;-75
2022/04/18 04:09:47;;;;;;;;;;;7.40;99.90;;;;;;5117882;27;20368;-75
2022/04/18 04:12:12;;;;;;;;;;;7.40;99.90;;;;;;5135594;27;19952;-75
2022/04/18 04:14:38;;;;;;;;;;;7.40;99.90;;;;;;5136479;27;20352;-75
2022/04/18 04:17:03;;;;;;;;;;;7.40;99.90;;;;;;5136284;27;20011;-76
2022/04/18 04:19:29;;;;;;;;;;;7.30;99.90;;;;;;5135923;27;19912;-75
2022/04/18 04:21:55;;;;;;;;;;;7.40;99.90;;;;;;5136518;27;19907;-75
2022/04/18 04:24:20;;;;;;;;;;;7.40;99.90;;;;;;5135584;27;19908;-75
2022/04/18 04:26:46;;;;;;;;;;;7.50;99.90;;;;;;5136230;27;19952;-75
2022/04/18 04:29:12;;;;;;;;;;;7.50;99.90;;;;;;5135808;27;19907;-76
2022/04/18 04:31:37;;;;;;;;;;;7.50;99.90;;;;;;5135619;27;19912;-75
2022/04/18 04:34:03;;;;;;;;;;;7.40;99.90;;;;;;5135264;27;20021;-75
2022/04/18 04:36:28;;;;;;;;;;;7.40;99.90;;;;;;5135116;27;20372;-75
2022/04/18 04:38:54;;;;;;;;;;;7.30;99.90;;;;;;5136049;27;19983;-75
2022/04/18 04:41:19;;;;;;;;;;;7.30;99.90;;;;;;5135156;27;19933;-75
2022/04/18 04:43:45;;;;;;;;;;;7.40;99.90;;;;;;5135576;27;19907;-75
2022/04/18 04:46:10;;;;;;;;;;;7.30;99.90;;;;;;5135405;27;19952;-75
2022/04/18 04:48:36;;;;;;;;;;;7.30;99.90;;;;;;5134998;27;19987;-75
2022/04/18 04:51:02;;;;;;;;;;;7.40;99.90;;;;;;5135495;27;19947;-75
2022/04/18 04:53:28;;;;;;;;;;;7.30;99.90;;;;;;5135274;27;20298;-76
2022/04/18 04:55:53;;;;;;;;;;;7.30;99.90;;;;;;5135417;27;19971;-75
2022/04/18 04:58:19;;;;;;;;;;;7.30;99.90;;;;;;5134850;27;19912;-75
2022/04/18 05:00:45;;;;;;;;;;;7.20;99.90;;;;;;5135065;27;19911;-75
2022/04/18 05:03:10;;;;;;;;;;;7.20;99.90;;;;;;5135002;27;20303;-75
2022/04/18 05:05:36;;;;;;;;;;;7.20;99.90;;;;;;5134916;27;20356;-77
2022/04/18 05:08:02;;;;;;;;;;;7.20;99.90;;;;;;5135337;27;19960;-76
2022/04/18 05:10:27;;;;;;;;;;;7.20;99.90;;;;;;5134340;27;19918;-76
2022/04/18 05:12:53;;;;;;;;;;;7.20;99.90;;;;;;5135221;27;20003;-75
2022/04/18 05:15:19;;;;;;;;;;;7.20;99.90;;;;;;5134583;27;19943;-76
2022/04/18 05:17:44;;;;;;;;;;;7.10;99.90;;;;;;5135052;27;20259;-76
2022/04/18 05:20:11;;;;;;;;;;;7.10;99.90;;;;;;5134885;27;19994;-76
2022/04/18 05:22:36;;;;;;;;;;;7.10;99.90;;;;;;5134433;27;19955;-76
2022/04/18 05:25:02;;;;;;;;;;;7.10;99.90;;;;;;5134867;27;20393;-76
2022/04/18 05:27:28;;;;;;;;;;;7.20;99.90;;;;;;5134606;27;19907;-76
2022/04/18 05:29:53;;;;;;;;;;;7.30;99.90;;;;;;5134637;27;20304;-75
2022/04/18 05:32:19;;;;;;;;;;;7.20;99.90;;;;;;5134153;27;19930;-76
2022/04/18 05:34:44;;;;;;;;;;;7.30;99.90;;;;;;5134746;27;20341;-76
2022/04/18 05:37:10;;;;;;;;;;;7.30;99.90;;;;;;5134530;27;20041;-76
2022/04/18 05:39:36;;;;;;;;;;;7.20;99.90;;;;;;5134040;27;19911;-76
2022/04/18 05:42:01;;;;;;;;;;;7.30;99.90;;;;;;5134462;27;20429;-76
2022/04/18 05:44:27;;;;;;;;;;;7.30;99.90;;;;;;5133696;27;19912;-76
2022/04/18 05:46:53;;;;;;;;;;;7.30;99.90;;;;;;5134356;27;20276;-76
2022/04/18 05:49:19;;;;;;;;;;;7.30;99.90;;;;;;5133703;27;19915;-75
2022/04/18 05:51:44;;;;;;;;;;;7.30;99.90;;;;;;5134206;27;19911;-76
2022/04/18 05:54:10;;;;;;;;;;;7.30;99.90;;;;;;5134175;27;19907;-75
2022/04/18 05:56:36;;;;;;;;;;;7.30;99.90;;;;;;5133446;27;19926;-76
2022/04/18 05:59:02;;;;;;;;;;;7.30;99.90;;;;;;5134117;27;19912;-75
2022/04/18 06:01:30;;;;;;;;;;;7.30;99.90;;;;;;5133298;27;20382;-75
2022/04/18 06:03:56;;;;;;;;;;;7.30;99.90;;;;;;5134066;27;19908;-76
2022/04/18 06:06:22;;;;;;;;;;;7.40;99.90;;;;;;5133641;27;19911;-76
2022/04/18 06:08:47;;;;;;;;;;;7.40;99.90;;;;;;5115534;27;20374;-76
2022/04/18 06:11:13;;;;;;;;;;;7.40;99.90;;;;;;5134041;27;19939;-75
2022/04/18 06:13:38;;;;;;;;;;;7.50;99.90;;;;;;5133298;27;20523;-75
2022/04/18 06:16:04;;;;;;;;;;;7.50;99.90;;;;;;5133804;27;19915;-76
2022/04/18 06:18:30;;;;;;;;;;;7.50;99.90;;;;;;5133170;27;19915;-75
2022/04/18 06:20:55;;;;;;;;;;;7.50;99.90;;;;;;5133891;27;19915;-75
2022/04/18 06:23:21;;;;;;;;;;;7.60;99.90;;;;;;5133416;27;20352;-75
2022/04/18 06:25:47;;;;;;;;;;;7.60;99.90;;;;;;5133944;27;19912;-76
2022/04/18 06:28:12;;;;;;;;;;;7.70;99.90;;;;;;5133575;27;20436;-75
2022/04/18 06:30:38;;;;;;;;;;;7.70;99.90;;;;;;5133249;27;19908;-75
2022/04/18 06:33:04;;;;;;;;;;;7.80;99.90;;;;;;5115531;28;19908;-75
2022/04/18 06:35:30;;;;;;;;;;;7.80;99.90;;;;;;5132800;28;19911;-75
2022/04/18 06:37:56;;;;;;;;;;;7.90;99.90;;;;;;5115461;28;19915;-75
2022/04/18 06:40:21;;;;;;;;;;;8.00;99.90;;;;;;5133495;28;20006;-75
2022/04/18 06:42:47;;;;;;;;;;;8.10;99.90;;;;;;5133503;28;19954;-75
2022/04/18 06:45:13;;;;;;;;;;;8.20;99.90;;;;;;5133412;28;19908;-75
2022/04/18 06:47:38;;;;;;;;;;;8.30;99.90;;;;;;5133200;28;19914;-75
2022/04/18 06:50:10;;;;;;;;;;;8.50;99.90;;;;;;5133750;28;19908;-75
2022/04/18 06:52:39;;;;;;;;;;;8.50;99.90;;;;;;5133177;28;19907;-75
2022/04/18 06:55:04;;;;;;;;;;;8.60;99.90;;;;;;5114997;28;19942;-75
2022/04/18 06:57:30;;;;;;;;;;;8.70;99.90;;;;;;5133607;27;20356;-75
2022/04/18 06:59:56;;;;;;;;;;;8.70;99.90;;;;;;5138059;27;19911;-75
2022/04/18 07:02:21;;;;;;;;;;;8.80;99.90;;;;;;5137338;27;20011;-75
2022/04/18 07:04:47;;;;;;;;;;;8.80;99.90;;;;;;5137208;27;19965;-75
2022/04/18 07:07:12;;;;;;;;;;;8.80;99.90;;;;;;5137672;27;19907;-74
2022/04/18 07:09:38;;;;;;;;;;;8.90;99.90;;;;;;5136972;27;19914;-73
2022/04/18 07:12:03;;;;;;;;;;;8.90;99.90;;;;;;5137187;27;19907;-73
2022/04/18 07:14:30;;;;;;;;;;;9.00;99.90;;;;;;5137205;27;19907;-76
2022/04/18 07:16:56;;;;;;;;;;;9.00;99.90;;;;;;5137297;27;19952;-76
2022/04/18 07:19:21;;;;;;;;;;;9.00;99.90;;;;;;5137465;27;19973;-76
2022/04/18 07:21:47;;;;;;;;;;;9.10;99.90;;;;;;5118105;27;20372;-76
2022/04/18 07:24:13;;;;;;;;;;;9.10;99.90;;;;;;5137365;27;19907;-75
2022/04/18 07:26:38;;;;;;;;;;;9.20;99.90;;;;;;5118186;27;20352;-76
2022/04/18 07:29:04;;;;;;;;;;;9.30;99.90;;;;;;5137362;27;19967;-75
2022/04/18 07:31:31;;;;;;;;;;;9.30;99.90;;;;;;5135771;27;20276;-75
2022/04/18 07:33:56;;;;;;;;;;;9.40;99.90;;;;;;5137102;27;20002;-76
2022/04/18 07:36:22;;;;;;;;;;;9.40;99.90;;;;;;5137306;27;19942;-75
2022/04/18 07:38:50;;;;;;;;;;;9.50;99.90;;;;;;5136218;27;19911;-75
2022/04/18 07:41:17;;;;;;;;;;;9.50;99.90;;;;;;5136169;27;19918;-76
2022/04/18 07:43:42;;;;;;;;;;;9.50;99.90;;;;;;5136290;27;19915;-76
2022/04/18 07:46:08;;;;;;;;;;;9.60;99.90;;;;;;5136781;27;19907;-76
2022/04/18 07:48:34;;;;;;;;;;;9.60;99.90;;;;;;5136337;27;19929;-76
2022/04/18 07:53:44;;;;;;;;;;;9.70;99.90;;;;;;5136150;27;20688;-76
2022/04/18 07:56:10;;;;;;;;;;;9.80;99.90;;;;;;5136330;27;19958;-75
2022/04/18 07:58:35;;;;;;;;;;;9.90;99.90;;;;;;5135902;27;19920;-76
2022/04/18 08:01:01;;;;;;;;;;;9.90;99.90;;;;;;5136576;27;19918;-75
2022/04/18 08:03:27;;;;;;;;;;;9.90;99.90;;;;;;5117449;27;19911;-76
2022/04/18 08:05:56;;;;;;;;;;;10.10;99.90;;;;;;5136423;27;19908;-76
2022/04/18 08:08:22;;;;;;;;;;;10.30;99.90;;;;;;5136283;27;19911;-76
2022/04/18 08:10:47;;;;;;;;;;;10.40;99.90;;;;;;5134544;27;19940;-76
2022/04/18 08:13:13;;;;;;;;;;;10.60;99.90;;;;;;5136014;27;19908;-76
2022/04/18 08:15:38;;;;;;;;;;;10.90;99.90;;;;;;5135496;27;19915;-75
2022/04/18 08:18:05;;;;;;;;;;;11.10;99.90;;;;;;5136233;27;19912;-75
2022/04/18 08:20:30;;;;;;;;;;;11.40;99.90;;;;;;5135657;27;19923;-75
2022/04/18 08:22:56;;;;;;;;;;;11.50;99.90;;;;;;5136035;27;19907;-73
2022/04/18 08:25:22;;;;;;;;;;;11.50;99.90;;;;;;5135527;27;19908;-73
2022/04/18 08:27:47;;;;;;;;;;;11.50;99.90;;;;;;5135303;27;19911;-73
2022/04/18 08:30:13;;;;;;;;;;;11.50;99.90;;;;;;5135814;27;19958;-74
2022/04/18 08:32:39;;;;;;;;;;;11.40;99.90;;;;;;5135207;27;20360;-74
2022/04/18 08:35:05;;;;;;;;;;;11.50;99.90;;;;;;5135806;27;19915;-76
2022/04/18 08:37:31;;;;;;;;;;;11.50;99.90;;;;;;5135147;27;19911;-75
2022/04/18 08:39:56;;;;;;;;;;;11.60;99.90;;;;;;5117236;27;20336;-76
2022/04/18 08:42:23;;;;;;;;;;;11.70;99.90;;;;;;5135611;27;19914;-74
2022/04/18 08:44:52;;;;;;;;;;;11.80;99.90;;;;;;5134839;27;20050;-75
2022/04/18 08:52:53;;;;;;;;;;;11.90;99.90;;;;;;5134715;27;20581;-75
2022/04/18 08:55:19;;;;;;;;;;;11.90;99.90;;;;;;5135211;27;20383;-76
2022/04/18 08:57:45;;;;;;;;;;;11.90;99.90;;;;;;5134568;27;19964;-75
2022/04/18 09:00:12;;;;;;;;;;;11.90;99.90;;;;;;5135235;27;19915;-75
2022/04/18 09:02:38;;;;;;;;;;;11.90;99.90;;;;;;5134626;27;19907;-74
2022/04/18 09:05:04;;;;;;;;;;;11.90;99.90;;;;;;5135719;27;19915;-74
2022/04/18 09:07:29;;;;;;;;;;;11.90;99.90;;;;;;5135054;27;20399;-74
2022/04/18 09:09:55;;;;;;;;;;;12.00;99.90;;;;;;5134342;27;19908;-75
2022/04/18 09:12:22;;;;;;;;;;;11.90;99.90;;;;;;5135005;27;20356;-75
2022/04/18 09:14:51;;;;;;;;;;;12.00;99.90;;;;;;5134002;27;19918;-75
2022/04/18 09:17:26;;;;;;;;;;;12.10;99.90;;;;;;5134823;27;20363;-74
2022/04/18 09:20:02;;;;;;;;;;;11.90;99.90;;;;;;5134240;27;19914;-74
2022/04/18 09:22:27;;;;;;;;;;;11.90;99.90;;;;;;5134349;27;19912;-73
2022/04/18 09:24:54;;;;;;;;;;;12.00;99.90;;;;;;5134207;27;19917;-73
2022/04/18 09:27:23;;;;;;;;;;;12.00;99.90;;;;;;5134925;27;19937;-73
2022/04/18 09:30:00;;;;;;;;;;;12.00;99.90;;;;;;5134146;27;19907;-73
2022/04/18 09:32:26;;;;;;;;;;;12.20;99.90;;;;;;5134941;27;19946;-73
2022/04/18 09:34:58;;;;;;;;;;;12.30;99.90;;;;;;5133814;27;19919;-74
2022/04/18 09:37:27;;;;;;;;;;;12.30;99.90;;;;;;5134927;27;19915;-73
2022/04/18 09:39:54;;;;;;;;;;;12.40;99.90;;;;;;5133847;27;19917;-74
2022/04/18 09:42:24;;;;;;;;;;;12.40;99.90;;;;;;5134307;27;19907;-74
2022/04/18 09:44:50;;;;;;;;;;;12.40;99.90;;;;;;5133932;27;19914;-73
2022/04/18 09:47:18;;;;;;;;;;;12.30;99.90;;;;;;5133654;27;20295;-74
2022/04/18 09:49:45;;;;;;;;;;;12.20;99.90;;;;;;5133426;27;19907;-74
2022/04/18 09:52:11;;;;;;;;;;;12.20;99.90;;;;;;5133547;27;19908;-74
2022/04/18 09:54:49;;;;;;;;;;;12.20;99.90;;;;;;5133127;27;19922;-74
2022/04/18 09:57:19;;;;;;;;;;;12.20;99.90;;;;;;5115643;27;19912;-74
2022/04/18 09:59:46;;;;;;;;;;;12.20;99.90;;;;;;5114377;27;20096;-74
2022/04/18 10:02:13;;;;;;;;;;;12.10;99.90;;;;;;5133741;27;19908;-74
2022/04/18 10:04:38;;;;;;;;;;;12.10;99.90;;;;;;5133304;27;19958;-74
2022/04/18 10:07:04;;;;;;;;;;;12.10;99.90;;;;;;5133822;27;20241;-74
2022/04/18 10:09:30;;;;;;;;;;;12.10;99.90;;;;;;5133778;27;19911;-74
2022/04/18 10:11:56;;;;;;;;;;;12.00;99.90;;;;;;5132704;27;19904;-74
2022/04/18 10:14:22;;;;;;;;;;;11.90;99.90;;;;;;5133740;27;19907;-74
2022/04/18 10:16:47;;;;;;;;;;;11.80;99.90;;;;;;5114580;27;19919;-74
2022/04/18 10:19:33;;;;;;;;;;;11.70;99.90;;;;;;5133469;27;19960;-75
2022/04/18 10:22:05;;;;;;;;;;;11.50;99.90;;;;;;5132328;27;20453;-79
2022/04/18 10:24:30;;;;;;;;;;;11.00;99.90;;;;;;5115295;27;19911;-84
2022/04/18 10:27:22;;;;;;;;;;;10.80;99.90;;;;;;5114727;28;19915;-83
2022/04/18 10:29:51;;;;;;;;;;;10.70;99.90;;;;;;5114713;28;19912;-83
2022/04/18 10:32:20;;;;;;;;;;;10.60;99.90;;;;;;5133098;27;19914;-81
2022/04/18 10:34:50;;;;;;;;;;;10.40;99.90;;;;;;5133358;28;19908;-78
2022/04/18 10:37:16;;;;;;;;;;;10.50;99.90;;;;;;5133199;28;20384;-77
2022/04/18 10:39:41;;;;;;;;;;;10.40;99.90;;;;;;5132773;28;19939;-77
2022/04/18 10:42:23;;;;;;;;;;;10.50;99.90;;;;;;5133065;28;19911;-77
2022/04/18 10:45:07;;;;;;;;;;;10.60;99.90;;;;;;5132687;28;19915;-77
2022/04/18 10:47:52;;;;;;;;;;;10.70;99.90;;;;;;5133286;28;19914;-77
2022/04/18 10:50:20;;;;;;;;;;;10.90;99.90;;;;;;5133050;28;20334;-76
2022/04/18 10:53:05;;;;;;;;;;;11.00;99.90;;;;;;5114439;28;19908;-76
2022/04/18 10:55:30;;;;;;;;;;;11.10;99.90;;;;;;5133212;28;19946;-76
2022/04/18 10:58:09;;;;;;;;;;;11.20;99.90;;;;;;5132494;28;19919;-76
2022/04/18 11:00:58;;;;;;;;;;;11.40;99.90;;;;;;5133109;28;19914;-76
2022/04/18 11:03:43;;;;;;;;;;;11.60;99.90;;;;;;5119614;28;19911;-76
2022/04/18 11:06:15;;;;;;;;;;;11.80;99.90;;;;;;5132170;28;19952;-76
2022/04/18 11:08:41;;;;;;;;;;;12.00;99.90;;;;;;5132669;28;19907;-76
2022/04/18 11:11:07;;;;;;;;;;;12.20;99.90;;;;;;5133530;28;19921;-76
2022/04/18 11:13:33;;;;;;;;;;;12.30;99.90;;;;;;5132903;28;20364;-77
2022/04/18 11:16:17;;;;;;;;;;;12.40;99.90;;;;;;5132396;28;19907;-76
2022/04/18 11:19:03;;;;;;;;;;;12.50;99.90;;;;;;5132339;28;19937;-76
2022/04/18 11:21:52;;;;;;;;;;;12.60;99.90;;;;;;5134334;28;19907;-76
2022/04/18 11:24:36;;;;;;;;;;;12.80;99.90;;;;;;5119254;28;19956;-77
2022/04/18 11:27:03;;;;;;;;;;;12.80;99.90;;;;;;5132470;28;20809;-77
2022/04/18 11:29:30;;;;;;;;;;;12.80;99.90;;;;;;5132968;28;19964;-76
2022/04/18 11:31:56;;;;;;;;;;;12.60;99.90;;;;;;5131937;28;20314;-76
2022/04/18 11:34:24;;;;;;;;;;;12.50;99.90;;;;;;5132933;28;19956;-76
2022/04/18 11:36:50;;;;;;;;;;;12.60;99.90;;;;;;5132689;28;19952;-76
2022/04/18 11:39:16;;;;;;;;;;;12.70;99.90;;;;;;5132773;28;20431;-76
2022/04/18 11:41:41;;;;;;;;;;;12.80;99.90;;;;;;5114140;28;20002;-77
2022/04/18 11:44:07;;;;;;;;;;;12.80;99.90;;;;;;5134081;27;19912;-76
2022/04/18 11:46:32;;;;;;;;;;;12.90;99.90;;;;;;5136668;27;19957;-76
2022/04/18 11:48:58;;;;;;;;;;;13.10;99.90;;;;;;5136032;27;20202;-76
2022/04/18 11:51:56;;;;;;;;;;;13.20;99.90;;;;;;5136724;27;19919;-76
2022/04/18 11:54:21;;;;;;;;;;;13.30;99.90;;;;;;5079403;27;20356;-75
2022/04/18 11:57:00;;;;;;;;;;;13.40;99.90;;;;;;5135585;27;19919;-76
2022/04/18 11:59:26;;;;;;;;;;;13.60;99.90;;;;;;5136340;27;19972;-77
2022/04/18 12:07:21;;;;;;;;;;;13.60;99.90;;;;;;5136252;27;19915;-76
2022/04/18 12:09:47;;;;;;;;;;;13.80;99.90;;;;;;5117287;27;19959;-76
2022/04/18 12:12:45;;;;;;;;;;;14.00;99.90;;;;;;5136179;27;19908;-76
2022/04/18 12:15:10;;;;;;;;;;;14.30;99.90;;;;;;5079176;27;20271;-76
2022/04/18 12:17:36;;;;;;;;;;;14.50;99.90;;;;;;5135868;27;19927;-76
2022/04/18 12:20:20;;;;;;;;;;;14.60;99.90;;;;;;5135433;27;19907;-76
2022/04/18 12:22:53;;;;;;;;;;;14.60;99.90;;;;;;5135670;27;19907;-77
2022/04/18 12:25:22;;;;;;;;;;;14.50;99.90;;;;;;5117570;27;19907;-76
2022/04/18 12:27:48;;;;;;;;;;;14.10;99.90;;;;;;5135379;27;19920;-76
2022/04/18 12:30:14;;;;;;;;;;;13.80;99.90;;;;;;5135999;27;19915;-76
2022/04/18 12:32:39;;;;;;;;;;;13.50;99.90;;;;;;5117582;27;19907;-76
2022/04/18 12:35:05;;;;;;;;;;;13.30;99.90;;;;;;5135206;27;20340;-76
2022/04/18 12:37:31;;;;;;;;;;;13.20;99.90;;;;;;5135451;27;19919;-76
2022/04/18 12:40:09;;;;;;;;;;;12.90;99.90;;;;;;5135037;27;20391;-76
2022/04/18 12:42:35;;;;;;;;;;;12.90;99.90;;;;;;5117139;27;19914;-76
2022/04/18 12:45:00;;;;;;;;;;;12.80;99.90;;;;;;5134550;27;20002;-76
2022/04/18 12:47:30;;;;;;;;;;;12.60;99.90;;;;;;5135578;27;19998;-76
2022/04/18 12:50:06;;;;;;;;;;;12.50;99.90;;;;;;5134863;27;20318;-76
2022/04/18 12:52:31;;;;;;;;;;;12.40;99.90;;;;;;5135833;27;19907;-76
2022/04/18 12:55:06;;;;;;;;;;;12.30;99.90;;;;;;5133958;27;19931;-76
2022/04/18 12:57:32;;;;;;;;;;;12.30;99.90;;;;;;5135493;27;20010;-76
2022/04/18 13:00:12;;;;;;;;;;;12.40;99.90;;;;;;5134611;27;19980;-76
2022/04/18 13:02:39;;;;;;;;;;;12.50;99.90;;;;;;5135177;27;19918;-76
2022/04/18 13:05:04;;;;;;;;;;;12.70;99.90;;;;;;5134539;27;19949;-76
2022/04/18 13:07:30;;;;;;;;;;;12.90;99.90;;;;;;5117000;27;19912;-76
2022/04/18 13:10:05;;;;;;;;;;;13.10;99.90;;;;;;5116045;27;20352;-76
2022/04/18 13:12:31;;;;;;;;;;;13.40;99.90;;;;;;5134883;27;19943;-76
2022/04/18 13:15:03;;;;;;;;;;;13.70;99.90;;;;;;5134385;27;19954;-76
2022/04/18 13:17:29;;;;;;;;;;;13.90;99.90;;;;;;5134804;27;20018;-76
2022/04/18 13:19:55;;;;;;;;;;;14.00;99.90;;;;;;5134232;27;19907;-76
2022/04/18 13:22:20;;;;;;;;;;;14.20;99.90;;;;;;5134574;27;19907;-76
2022/04/18 13:24:46;;;;;;;;;;;14.20;99.90;;;;;;5134820;27;20268;-76
2022/04/18 13:27:24;;;;;;;;;;;14.10;99.90;;;;;;5134098;27;19907;-74
2022/04/18 13:29:50;;;;;;;;;;;13.90;99.90;;;;;;5134177;27;19930;-74
2022/04/18 13:32:16;;;;;;;;;;;13.80;99.90;;;;;;5134883;27;20356;-76
2022/04/18 13:34:41;;;;;;;;;;;13.60;99.90;;;;;;5135048;27;19965;-76
2022/04/18 13:37:07;;;;;;;;;;;13.50;99.90;;;;;;5133910;27;19918;-76
2022/04/18 13:39:32;;;;;;;;;;;13.20;99.90;;;;;;5134447;27;19908;-76
2022/04/18 13:41:58;;;;;;;;;;;13.00;99.90;;;;;;5134046;27;19908;-77
2022/04/18 13:44:23;;;;;;;;;;;12.80;99.90;;;;;;5134440;27;19911;-77
2022/04/18 13:46:49;;;;;;;;;;;12.70;99.90;;;;;;5134381;27;19907;-76
2022/04/18 13:49:15;;;;;;;;;;;12.40;99.90;;;;;;5133401;27;19995;-76
2022/04/18 13:51:40;;;;;;;;;;;12.30;99.90;;;;;;5134377;27;20356;-77
2022/04/18 13:54:06;;;;;;;;;;;12.10;99.90;;;;;;5133415;27;19956;-76
2022/04/18 13:56:32;;;;;;;;;;;12.20;99.90;;;;;;5134499;27;19950;-76
2022/04/18 13:58:59;;;;;;;;;;;12.20;99.90;;;;;;5133585;27;20014;-76
2022/04/18 14:01:25;;;;;;;;;;;12.20;99.90;;;;;;5133690;27;20408;-76
2022/04/18 14:03:50;;;;;;;;;;;12.50;99.90;;;;;;5134096;27;20007;-76
2022/04/18 14:06:16;;;;;;;;;;;12.50;99.90;;;;;;5133230;27;20378;-76
2022/04/18 14:08:42;;;;;;;;;;;12.40;99.90;;;;;;5133916;27;20413;-76
2022/04/18 14:11:12;;;;;;;;;;;12.20;99.90;;;;;;5130490;27;19919;-77
2022/04/18 14:13:39;;;;;;;;;;;12.20;99.90;;;;;;5132277;27;19934;-76
2022/04/18 14:21:34;;;;;;;;;;;12.40;99.90;;;;;;5133883;27;19914;-76
2022/04/18 14:24:00;;;;;;;;;;;12.60;99.90;;;;;;5132946;27;20002;-76
2022/04/18 14:26:26;;;;;;;;;;;12.60;99.90;;;;;;5133648;27;19915;-76
2022/04/18 14:28:51;;;;;;;;;;;12.90;99.90;;;;;;5134146;27;19912;-77
2022/04/18 14:31:17;;;;;;;;;;;13.20;99.90;;;;;;5133036;27;19911;-76
2022/04/18 14:33:43;;;;;;;;;;;13.40;99.90;;;;;;5133773;27;19908;-76
2022/04/18 14:36:08;;;;;;;;;;;13.60;99.90;;;;;;5132889;27;20388;-76
2022/04/18 14:38:34;;;;;;;;;;;13.60;99.90;;;;;;5133964;28;19915;-76
2022/04/18 14:41:00;;;;;;;;;;;13.50;99.90;;;;;;5133103;28;20352;-76
2022/04/18 14:43:26;;;;;;;;;;;13.30;99.90;;;;;;5133455;28;19908;-75
2022/04/18 14:45:51;;;;;;;;;;;13.00;99.90;;;;;;5133584;28;19907;-76
2022/04/18 14:48:17;;;;;;;;;;;12.80;99.90;;;;;;5133152;28;20379;-75
2022/04/18 14:50:42;;;;;;;;;;;12.60;99.90;;;;;;5132655;28;19955;-76
2022/04/18 14:53:09;;;;;;;;;;;12.50;99.90;;;;;;5114563;28;19914;-76